sensor_id;sensor_type;location;lat;lon;timestamp;pressure;altitude;pressure_sealevel;temperature;humidity
11936;BME280;6027;48.576;9.180;2023-12-20T00:00:40;96922.63;;;5.09;100.00
11936;BME280;6027;48.576;9.180;2023-12-20T00:03:05;96906.97;;;5.17;100.00
11936;BME280;6027;48.576;9.180;2023-12-20T00:05:31;96903.06;;;5.21;100.00
11936;BME280;6027;48.576;9.180;2023-12-20T00:07:57;96889.50;;;5.26;100.00
11936;BME280;6027;48.576;9.180;2023-12-20T00:10:23;96891.69;;;5.31;100.00
11936;BME280;6027;48.576;9.180;2023-12-20T00:12:48;96900.28;;;5.23;100.00
11936;BME280;6027;48.576;9.180;2023-12-20T00:15:13;96893.91;;;5.26;100.00
11936;BME280;6027;48.576;9.180;2023-12-20T00:17:39;96883.28;;;5.27;100.00
11936;BME280;6027;48.576;9.180;2023-12-20T00:20:05;96882.31;;;5.28;100.00
11936;BME280;6027;48.576;9.180;2023-12-20T00:22:31;96884.34;;;5.34;100.00
11936;BME280;6027;48.576;9.180;2023-12-20T00:24:57;96875.50;;;5.35;100.00
11936;BME280;6027;48.576;9.180;2023-12-20T00:27:22;96862.41;;;5.43;100.00
11936;BME280;6027;48.576;9.180;2023-12-20T00:29:48;96861.81;;;5.49;100.00
11936;BME280;6027;48.576;9.180;2023-12-20T00:32:15;96848.25;;;5.54;100.00
11936;BME280;6027;48.576;9.180;2023-12-20T00:34:41;96856.97;;;5.54;100.00
11936;BME280;6027;48.576;9.180;2023-12-20T00:37:06;96847.97;;;5.57;100.00
11936;BME280;6027;48.576;9.180;2023-12-20T00:39:32;96847.97;;;5.57;100.00
11936;BME280;6027;48.576;9.180;2023-12-20T00:41:58;96836.66;;;5.65;100.00
11936;BME280;6027;48.576;9.180;2023-12-20T00:44:23;96837.78;;;5.62;100.00
11936;BME280;6027;48.576;9.180;2023-12-20T00:46:49;96849.13;;;5.63;100.00
11936;BME280;6027;48.576;9.180;2023-12-20T00:49:14;96842.53;;;5.59;100.00
11936;BME280;6027;48.576;9.180;2023-12-20T00:51:40;96841.88;;;5.57;100.00
11936;BME280;6027;48.576;9.180;2023-12-20T00:54:06;96832.66;;;5.52;100.00
11936;BME280;6027;48.576;9.180;2023-12-20T00:56:31;96832.03;;;5.59;100.00
11936;BME280;6027;48.576;9.180;2023-12-20T00:58:57;96835.94;;;5.54;100.00
11936;BME280;6027;48.576;9.180;2023-12-20T01:01:22;96837.06;;;5.52;100.00
11936;BME280;6027;48.576;9.180;2023-12-20T01:03:48;96841.94;;;5.47;100.00
11936;BME280;6027;48.576;9.180;2023-12-20T01:06:16;96846.13;;;5.40;100.00
11936;BME280;6027;48.576;9.180;2023-12-20T01:08:41;96850.75;;;5.38;100.00
11936;BME280;6027;48.576;9.180;2023-12-20T01:11:07;96857.47;;;5.40;100.00
11936;BME280;6027;48.576;9.180;2023-12-20T01:13:35;96860.03;;;5.32;100.00
11936;BME280;6027;48.576;9.180;2023-12-20T01:16:00;96857.72;;;5.29;100.00
11936;BME280;6027;48.576;9.180;2023-12-20T01:18:26;96866.41;;;5.30;100.00
11936;BME280;6027;48.576;9.180;2023-12-20T01:20:52;96865.72;;;5.28;100.00
11936;BME280;6027;48.576;9.180;2023-12-20T01:23:17;96868.50;;;5.26;100.00
11936;BME280;6027;48.576;9.180;2023-12-20T01:25:43;96870.75;;;5.21;100.00
11936;BME280;6027;48.576;9.180;2023-12-20T01:28:08;96863.53;;;5.23;100.00
11936;BME280;6027;48.576;9.180;2023-12-20T01:30:33;96864.97;;;5.17;100.00
11936;BME280;6027;48.576;9.180;2023-12-20T01:33:00;96866.78;;;5.17;100.00
11936;BME280;6027;48.576;9.180;2023-12-20T01:35:26;96876.59;;;5.15;100.00
11936;BME280;6027;48.576;9.180;2023-12-20T01:37:51;96876.06;;;5.11;100.00
11936;BME280;6027;48.576;9.180;2023-12-20T01:40:17;96874.72;;;5.07;100.00
11936;BME280;6027;48.576;9.180;2023-12-20T01:42:42;96874.41;;;5.10;100.00
11936;BME280;6027;48.576;9.180;2023-12-20T01:45:08;96873.06;;;5.06;100.00
11936;BME280;6027;48.576;9.180;2023-12-20T01:47:35;96874.84;;;5.06;100.00
11936;BME280;6027;48.576;9.180;2023-12-20T01:50:01;96875.97;;;5.03;100.00
11936;BME280;6027;48.576;9.180;2023-12-20T01:52:29;96885.97;;;5.00;100.00
11936;BME280;6027;48.576;9.180;2023-12-20T01:54:55;96871.19;;;4.99;100.00
11936;BME280;6027;48.576;9.180;2023-12-20T01:57:27;96881.97;;;4.96;100.00
11936;BME280;6027;48.576;9.180;2023-12-20T01:59:52;96880.31;;;4.95;100.00
11936;BME280;6027;48.576;9.180;2023-12-20T02:02:18;96878.38;;;4.97;100.00
11936;BME280;6027;48.576;9.180;2023-12-20T02:04:44;96870.66;;;4.95;100.00
11936;BME280;6027;48.576;9.180;2023-12-20T02:07:11;96874.00;;;4.88;100.00
11936;BME280;6027;48.576;9.180;2023-12-20T02:09:36;96864.47;;;4.86;100.00
11936;BME280;6027;48.576;9.180;2023-12-20T02:12:03;96864.88;;;4.92;100.00
11936;BME280;6027;48.576;9.180;2023-12-20T02:14:29;96854.94;;;4.85;100.00
11936;BME280;6027;48.576;9.180;2023-12-20T02:16:54;96857.22;;;4.80;100.00
11936;BME280;6027;48.576;9.180;2023-12-20T02:19:20;96856.06;;;4.83;100.00
11936;BME280;6027;48.576;9.180;2023-12-20T02:21:45;96856.81;;;4.75;100.00
11936;BME280;6027;48.576;9.180;2023-12-20T02:24:11;96854.91;;;4.68;100.00
11936;BME280;6027;48.576;9.180;2023-12-20T02:26:36;96862.22;;;4.74;100.00
11936;BME280;6027;48.576;9.180;2023-12-20T02:29:02;96860.69;;;4.71;100.00
11936;BME280;6027;48.576;9.180;2023-12-20T02:31:27;96855.31;;;4.73;100.00
11936;BME280;6027;48.576;9.180;2023-12-20T02:33:52;96852.28;;;4.68;100.00
11936;BME280;6027;48.576;9.180;2023-12-20T02:36:18;96852.44;;;4.66;100.00
11936;BME280;6027;48.576;9.180;2023-12-20T02:38:43;96865.25;;;4.69;100.00
11936;BME280;6027;48.576;9.180;2023-12-20T02:41:09;96849.13;;;4.64;100.00
11936;BME280;6027;48.576;9.180;2023-12-20T02:43:34;96854.69;;;4.61;100.00
11936;BME280;6027;48.576;9.180;2023-12-20T02:45:59;96855.66;;;4.60;100.00
11936;BME280;6027;48.576;9.180;2023-12-20T02:48:25;96858.72;;;4.56;100.00
11936;BME280;6027;48.576;9.180;2023-12-20T02:50:50;96858.84;;;4.54;100.00
11936;BME280;6027;48.576;9.180;2023-12-20T02:53:16;96850.16;;;4.54;100.00
11936;BME280;6027;48.576;9.180;2023-12-20T02:55:41;96864.09;;;4.54;100.00
11936;BME280;6027;48.576;9.180;2023-12-20T02:58:07;96853.22;;;4.49;100.00
11936;BME280;6027;48.576;9.180;2023-12-20T03:00:32;96858.16;;;4.52;100.00
11936;BME280;6027;48.576;9.180;2023-12-20T03:02:58;96856.66;;;4.49;100.00
11936;BME280;6027;48.576;9.180;2023-12-20T03:05:24;96861.91;;;4.49;100.00
11936;BME280;6027;48.576;9.180;2023-12-20T03:07:50;96861.91;;;4.49;100.00
11936;BME280;6027;48.576;9.180;2023-12-20T03:10:15;96860.66;;;4.54;100.00
11936;BME280;6027;48.576;9.180;2023-12-20T03:12:40;96865.34;;;4.50;100.00
11936;BME280;6027;48.576;9.180;2023-12-20T03:15:07;96866.72;;;4.54;100.00
11936;BME280;6027;48.576;9.180;2023-12-20T03:17:32;96865.91;;;4.54;100.00
11936;BME280;6027;48.576;9.180;2023-12-20T03:19:57;96865.75;;;4.55;100.00
11936;BME280;6027;48.576;9.180;2023-12-20T03:22:23;96862.69;;;4.60;100.00
11936;BME280;6027;48.576;9.180;2023-12-20T03:24:48;96871.25;;;4.62;100.00
11936;BME280;6027;48.576;9.180;2023-12-20T03:27:14;96876.19;;;4.65;100.00
11936;BME280;6027;48.576;9.180;2023-12-20T03:29:39;96869.13;;;4.65;100.00
11936;BME280;6027;48.576;9.180;2023-12-20T03:32:05;96876.88;;;4.67;100.00
11936;BME280;6027;48.576;9.180;2023-12-20T03:34:30;96878.50;;;4.68;100.00
11936;BME280;6027;48.576;9.180;2023-12-20T03:36:56;96883.34;;;4.72;100.00
11936;BME280;6027;48.576;9.180;2023-12-20T03:39:21;96882.94;;;4.67;100.00
11936;BME280;6027;48.576;9.180;2023-12-20T03:41:47;96878.50;;;4.68;100.00
11936;BME280;6027;48.576;9.180;2023-12-20T03:44:12;96888.44;;;4.74;100.00
11936;BME280;6027;48.576;9.180;2023-12-20T03:46:37;96891.19;;;4.72;100.00
11936;BME280;6027;48.576;9.180;2023-12-20T03:49:03;96886.25;;;4.69;100.00
11936;BME280;6027;48.576;9.180;2023-12-20T03:51:28;96895.50;;;4.64;100.00
11936;BME280;6027;48.576;9.180;2023-12-20T03:53:53;96895.34;;;4.65;100.00
11936;BME280;6027;48.576;9.180;2023-12-20T03:56:19;96901.69;;;4.72;100.00
11936;BME280;6027;48.576;9.180;2023-12-20T03:58:44;96891.78;;;4.66;100.00
11936;BME280;6027;48.576;9.180;2023-12-20T04:01:10;96891.09;;;4.64;100.00
11936;BME280;6027;48.576;9.180;2023-12-20T04:03:38;96887.50;;;4.65;100.00
11936;BME280;6027;48.576;9.180;2023-12-20T04:06:04;96895.06;;;4.68;100.00
11936;BME280;6027;48.576;9.180;2023-12-20T04:08:29;96887.94;;;4.61;100.00
11936;BME280;6027;48.576;9.180;2023-12-20T04:10:55;96902.53;;;4.63;100.00
11936;BME280;6027;48.576;9.180;2023-12-20T04:13:20;96902.03;;;4.60;100.00
11936;BME280;6027;48.576;9.180;2023-12-20T04:15:46;96910.19;;;4.57;100.00
11936;BME280;6027;48.576;9.180;2023-12-20T04:18:11;96905.63;;;4.59;100.00
11936;BME280;6027;48.576;9.180;2023-12-20T04:20:36;96899.28;;;4.61;100.00
11936;BME280;6027;48.576;9.180;2023-12-20T04:23:02;96900.81;;;4.54;100.00
11936;BME280;6027;48.576;9.180;2023-12-20T04:25:27;96892.09;;;4.54;100.00
11936;BME280;6027;48.576;9.180;2023-12-20T04:27:52;96912.41;;;4.51;100.00
11936;BME280;6027;48.576;9.180;2023-12-20T04:30:18;96916.97;;;4.49;100.00
11936;BME280;6027;48.576;9.180;2023-12-20T04:32:43;96919.72;;;4.48;100.00
11936;BME280;6027;48.576;9.180;2023-12-20T04:35:09;96910.06;;;4.48;100.00
11936;BME280;6027;48.576;9.180;2023-12-20T04:37:34;96901.09;;;4.51;100.00
11936;BME280;6027;48.576;9.180;2023-12-20T04:39:59;96902.94;;;4.41;100.00
11936;BME280;6027;48.576;9.180;2023-12-20T04:42:25;96897.69;;;4.41;100.00
11936;BME280;6027;48.576;9.180;2023-12-20T04:44:50;96897.28;;;4.36;100.00
11936;BME280;6027;48.576;9.180;2023-12-20T04:47:15;96910.09;;;4.39;100.00
11936;BME280;6027;48.576;9.180;2023-12-20T04:49:41;96920.03;;;4.35;100.00
11936;BME280;6027;48.576;9.180;2023-12-20T04:52:06;96925.56;;;4.32;100.00
11936;BME280;6027;48.576;9.180;2023-12-20T04:54:32;96919.38;;;4.24;100.00
11936;BME280;6027;48.576;9.180;2023-12-20T04:56:58;96916.75;;;4.24;100.00
11936;BME280;6027;48.576;9.180;2023-12-20T04:59:23;96927.63;;;4.29;100.00
11936;BME280;6027;48.576;9.180;2023-12-20T05:01:49;96938.25;;;4.27;100.00
11936;BME280;6027;48.576;9.180;2023-12-20T05:04:14;96946.66;;;4.31;100.00
11936;BME280;6027;48.576;9.180;2023-12-20T05:06:39;96935.09;;;4.33;100.00
11936;BME280;6027;48.576;9.180;2023-12-20T05:09:05;96932.06;;;4.28;100.00
11936;BME280;6027;48.576;9.180;2023-12-20T05:11:30;96950.53;;;4.27;100.00
11936;BME280;6027;48.576;9.180;2023-12-20T05:13:56;96934.69;;;4.28;100.00
11936;BME280;6027;48.576;9.180;2023-12-20T05:16:21;96948.19;;;4.33;100.00
11936;BME280;6027;48.576;9.180;2023-12-20T05:18:48;96954.53;;;4.31;100.00
11936;BME280;6027;48.576;9.180;2023-12-20T05:21:15;96947.91;;;4.36;100.00
11936;BME280;6027;48.576;9.180;2023-12-20T05:23:40;96954.53;;;4.31;100.00
11936;BME280;6027;48.576;9.180;2023-12-20T05:26:06;96955.63;;;4.38;100.00
11936;BME280;6027;48.576;9.180;2023-12-20T05:28:32;96958.53;;;4.35;100.00
11936;BME280;6027;48.576;9.180;2023-12-20T05:30:58;96959.78;;;4.31;100.00
11936;BME280;6027;48.576;9.180;2023-12-20T05:33:23;96978.69;;;4.34;100.00
11936;BME280;6027;48.576;9.180;2023-12-20T05:35:50;96974.69;;;4.30;100.00
11936;BME280;6027;48.576;9.180;2023-12-20T05:38:15;96975.22;;;4.34;100.00
11936;BME280;6027;48.576;9.180;2023-12-20T05:40:40;96979.91;;;4.30;100.00
11936;BME280;6027;48.576;9.180;2023-12-20T05:43:06;96974.25;;;4.25;100.00
11936;BME280;6027;48.576;9.180;2023-12-20T05:45:31;96972.59;;;4.24;100.00
11936;BME280;6027;48.576;9.180;2023-12-20T05:47:56;96988.06;;;4.27;100.00
11936;BME280;6027;48.576;9.180;2023-12-20T05:50:22;96991.78;;;4.25;100.00
11936;BME280;6027;48.576;9.180;2023-12-20T05:52:47;96978.25;;;4.29;100.00
11936;BME280;6027;48.576;9.180;2023-12-20T05:55:13;96984.34;;;4.30;100.00
11936;BME280;6027;48.576;9.180;2023-12-20T05:57:38;96985.97;;;4.31;100.00
11936;BME280;6027;48.576;9.180;2023-12-20T06:00:10;96996.06;;;4.26;100.00
11936;BME280;6027;48.576;9.180;2023-12-20T06:02:36;96992.47;;;4.27;100.00
11936;BME280;6027;48.576;9.180;2023-12-20T06:05:04;97008.59;;;4.32;100.00
11936;BME280;6027;48.576;9.180;2023-12-20T06:07:29;96995.91;;;4.27;100.00
11936;BME280;6027;48.576;9.180;2023-12-20T06:09:54;97012.59;;;4.26;100.00
11936;BME280;6027;48.576;9.180;2023-12-20T06:12:20;97012.09;;;4.23;100.00
11936;BME280;6027;48.576;9.180;2023-12-20T06:14:46;97019.94;;;4.23;100.00
11936;BME280;6027;48.576;9.180;2023-12-20T06:17:11;97012.50;;;4.18;100.00
11936;BME280;6027;48.576;9.180;2023-12-20T06:19:36;97014.00;;;4.21;100.00
11936;BME280;6027;48.576;9.180;2023-12-20T06:22:02;97017.72;;;4.18;100.00
11936;BME280;6027;48.576;9.180;2023-12-20T06:24:27;97014.28;;;4.18;100.00
11936;BME280;6027;48.576;9.180;2023-12-20T06:26:53;97019.78;;;4.14;100.00
11936;BME280;6027;48.576;9.180;2023-12-20T06:29:20;97019.13;;;4.22;100.00
11936;BME280;6027;48.576;9.180;2023-12-20T06:31:45;97025.47;;;4.20;100.00
11936;BME280;6027;48.576;9.180;2023-12-20T06:34:11;97026.41;;;4.19;100.00
11936;BME280;6027;48.576;9.180;2023-12-20T06:36:36;97038.56;;;4.20;100.00
11936;BME280;6027;48.576;9.180;2023-12-20T06:39:01;97024.19;;;4.24;100.00
11936;BME280;6027;48.576;9.180;2023-12-20T06:41:27;97029.03;;;4.19;100.00
11936;BME280;6027;48.576;9.180;2023-12-20T06:43:53;97035.50;;;4.24;100.00
11936;BME280;6027;48.576;9.180;2023-12-20T06:46:18;97029.44;;;4.24;100.00
11936;BME280;6027;48.576;9.180;2023-12-20T06:48:44;97021.03;;;4.20;100.00
11936;BME280;6027;48.576;9.180;2023-12-20T06:51:15;97016.22;;;4.15;100.00
11936;BME280;6027;48.576;9.180;2023-12-20T06:53:41;97042.97;;;4.19;100.00
11936;BME280;6027;48.576;9.180;2023-12-20T06:56:07;97042.25;;;4.27;100.00
11936;BME280;6027;48.576;9.180;2023-12-20T06:58:32;97045.47;;;4.21;100.00
11936;BME280;6027;48.576;9.180;2023-12-20T07:00:58;97042.41;;;4.25;100.00
11936;BME280;6027;48.576;9.180;2023-12-20T07:03:23;97046.00;;;4.34;100.00
11936;BME280;6027;48.576;9.180;2023-12-20T07:05:49;97051.66;;;4.29;100.00
11936;BME280;6027;48.576;9.180;2023-12-20T07:08:17;97041.28;;;4.28;100.00
11936;BME280;6027;48.576;9.180;2023-12-20T07:10:43;97036.31;;;4.25;100.00
11936;BME280;6027;48.576;9.180;2023-12-20T07:13:08;97052.19;;;4.33;100.00
11936;BME280;6027;48.576;9.180;2023-12-20T07:15:34;97057.16;;;4.26;100.00
11936;BME280;6027;48.576;9.180;2023-12-20T07:18:01;97059.09;;;4.34;100.00
11936;BME280;6027;48.576;9.180;2023-12-20T07:20:26;97066.00;;;4.35;100.00
11936;BME280;6027;48.576;9.180;2023-12-20T07:22:51;97071.78;;;4.29;100.00
11936;BME280;6027;48.576;9.180;2023-12-20T07:25:17;97070.41;;;4.34;100.00
11936;BME280;6027;48.576;9.180;2023-12-20T07:27:42;97068.19;;;4.30;100.00
11936;BME280;6027;48.576;9.180;2023-12-20T07:30:08;97074.69;;;4.35;100.00
11936;BME280;6027;48.576;9.180;2023-12-20T07:32:34;97078.41;;;4.33;100.00
11936;BME280;6027;48.576;9.180;2023-12-20T07:34:59;97089.19;;;4.39;100.00
11936;BME280;6027;48.576;9.180;2023-12-20T07:37:24;97097.88;;;4.40;100.00
11936;BME280;6027;48.576;9.180;2023-12-20T07:39:50;97101.84;;;4.44;100.00
11936;BME280;6027;48.576;9.180;2023-12-20T07:42:16;97105.44;;;4.43;100.00
11936;BME280;6027;48.576;9.180;2023-12-20T07:44:41;97097.88;;;4.40;100.00
11936;BME280;6027;48.576;9.180;2023-12-20T07:47:07;97097.19;;;4.38;100.00
11936;BME280;6027;48.576;9.180;2023-12-20T07:49:32;97091.09;;;4.28;100.00
11936;BME280;6027;48.576;9.180;2023-12-20T07:51:57;97099.94;;;4.36;100.00
11936;BME280;6027;48.576;9.180;2023-12-20T07:54:23;97101.59;;;4.37;100.00
11936;BME280;6027;48.576;9.180;2023-12-20T07:56:49;97097.19;;;4.38;100.00
11936;BME280;6027;48.576;9.180;2023-12-20T07:59:14;97105.03;;;4.38;100.00
11936;BME280;6027;48.576;9.180;2023-12-20T08:01:39;97112.78;;;4.39;100.00
11936;BME280;6027;48.576;9.180;2023-12-20T08:04:06;97110.53;;;4.44;100.00
11936;BME280;6027;48.576;9.180;2023-12-20T08:06:31;97112.88;;;4.47;100.00
11936;BME280;6027;48.576;9.180;2023-12-20T08:08:57;97115.94;;;4.53;100.00
11936;BME280;6027;48.576;9.180;2023-12-20T08:11:22;97114.66;;;4.66;100.00
11936;BME280;6027;48.576;9.180;2023-12-20T08:13:48;97113.59;;;4.59;100.00
11936;BME280;6027;48.576;9.180;2023-12-20T08:16:13;97121.16;;;4.62;100.00
11936;BME280;6027;48.576;9.180;2023-12-20T08:18:40;97127.22;;;4.63;100.00
11936;BME280;6027;48.576;9.180;2023-12-20T08:21:07;97112.22;;;4.55;100.00
11936;BME280;6027;48.576;9.180;2023-12-20T08:23:36;97124.78;;;4.61;100.00
11936;BME280;6027;48.576;9.180;2023-12-20T08:26:08;97122.81;;;4.63;100.00
11936;BME280;6027;48.576;9.180;2023-12-20T08:28:34;97115.50;;;4.67;100.00
11936;BME280;6027;48.576;9.180;2023-12-20T08:30:59;97119.22;;;4.64;100.00
11936;BME280;6027;48.576;9.180;2023-12-20T08:33:25;97131.94;;;4.69;100.00
11936;BME280;6027;48.576;9.180;2023-12-20T08:35:50;97129.03;;;4.72;100.00
11936;BME280;6027;48.576;9.180;2023-12-20T08:38:15;97126.41;;;4.72;100.00
11936;BME280;6027;48.576;9.180;2023-12-20T08:40:42;97125.72;;;4.70;100.00
11936;BME280;6027;48.576;9.180;2023-12-20T08:43:08;97120.88;;;4.75;100.00
11936;BME280;6027;48.576;9.180;2023-12-20T08:45:34;97128.19;;;4.71;100.00
11936;BME280;6027;48.576;9.180;2023-12-20T08:47:59;97122.41;;;4.77;100.00
11936;BME280;6027;48.576;9.180;2023-12-20T08:50:25;97136.06;;;4.81;100.00
11936;BME280;6027;48.576;9.180;2023-12-20T08:52:50;97137.03;;;4.80;100.00
11936;BME280;6027;48.576;9.180;2023-12-20T08:55:16;97146.00;;;4.77;100.00
11936;BME280;6027;48.576;9.180;2023-12-20T08:57:43;97144.34;;;4.76;100.00
11936;BME280;6027;48.576;9.180;2023-12-20T09:00:09;97159.38;;;4.84;100.00
11936;BME280;6027;48.576;9.180;2023-12-20T09:02:35;97158.00;;;4.90;100.00
11936;BME280;6027;48.576;9.180;2023-12-20T09:05:04;97170.28;;;4.89;100.00
11936;BME280;6027;48.576;9.180;2023-12-20T09:07:29;97165.44;;;4.84;100.00
11936;BME280;6027;48.576;9.180;2023-12-20T09:09:58;97152.91;;;4.78;100.00
11936;BME280;6027;48.576;9.180;2023-12-20T09:12:24;97162.00;;;4.84;100.00
11936;BME280;6027;48.576;9.180;2023-12-20T09:14:51;97164.25;;;4.79;100.00
11936;BME280;6027;48.576;9.180;2023-12-20T09:17:17;97162.00;;;4.65;100.00
11936;BME280;6027;48.576;9.180;2023-12-20T09:19:43;97150.31;;;4.59;100.00
11936;BME280;6027;48.576;9.180;2023-12-20T09:22:09;97152.22;;;4.47;100.00
11936;BME280;6027;48.576;9.180;2023-12-20T09:24:35;97153.47;;;4.53;100.00
11936;BME280;6027;48.576;9.180;2023-12-20T09:27:00;97156.91;;;4.44;100.00
11936;BME280;6027;48.576;9.180;2023-12-20T09:29:25;97167.41;;;4.34;100.00
11936;BME280;6027;48.576;9.180;2023-12-20T09:31:51;97155.66;;;4.29;100.00
11936;BME280;6027;48.576;9.180;2023-12-20T09:34:16;97167.09;;;4.28;100.00
11936;BME280;6027;48.576;9.180;2023-12-20T09:36:44;97169.16;;;4.24;100.00
11936;BME280;6027;48.576;9.180;2023-12-20T09:39:16;97161.16;;;4.16;100.00
11936;BME280;6027;48.576;9.180;2023-12-20T09:42:00;97172.50;;;4.36;100.00
11936;BME280;6027;48.576;9.180;2023-12-20T09:44:26;97168.78;;;4.38;100.00
11936;BME280;6027;48.576;9.180;2023-12-20T09:46:52;97166.41;;;4.45;100.00
11936;BME280;6027;48.576;9.180;2023-12-20T09:49:19;97166.03;;;4.49;100.00
11936;BME280;6027;48.576;9.180;2023-12-20T09:51:46;97162.00;;;4.65;100.00
11936;BME280;6027;48.576;9.180;2023-12-20T09:54:13;97163.28;;;4.61;100.00
11936;BME280;6027;48.576;9.180;2023-12-20T09:56:39;97166.16;;;4.67;100.00
11936;BME280;6027;48.576;9.180;2023-12-20T09:59:04;97168.78;;;4.67;100.00
11936;BME280;6027;48.576;9.180;2023-12-20T10:01:31;97175.41;;;4.71;100.00
11936;BME280;6027;48.576;9.180;2023-12-20T10:03:57;97173.59;;;4.81;100.00
11936;BME280;6027;48.576;9.180;2023-12-20T10:06:25;97167.28;;;4.74;100.00
11936;BME280;6027;48.576;9.180;2023-12-20T10:08:50;97166.00;;;4.88;100.00
11936;BME280;6027;48.576;9.180;2023-12-20T10:11:16;97165.59;;;4.83;100.00
11936;BME280;6027;48.576;9.180;2023-12-20T10:13:42;97161.75;;;4.77;100.00
11936;BME280;6027;48.576;9.180;2023-12-20T10:16:08;97155.50;;;4.88;100.00
11936;BME280;6027;48.576;9.180;2023-12-20T10:18:33;97148.88;;;4.94;100.00
11936;BME280;6027;48.576;9.180;2023-12-20T10:21:00;97150.69;;;4.93;100.00
11936;BME280;6027;48.576;9.180;2023-12-20T10:23:25;97161.31;;;4.82;100.00
11936;BME280;6027;48.576;9.180;2023-12-20T10:26:00;97159.25;;;4.85;100.00
11936;BME280;6027;48.576;9.180;2023-12-20T10:28:26;97153.31;;;4.93;100.00
11936;BME280;6027;48.576;9.180;2023-12-20T10:30:55;97152.63;;;4.91;100.00
11936;BME280;6027;48.576;9.180;2023-12-20T10:33:27;97130.25;;;4.87;100.00
11936;BME280;6027;48.576;9.180;2023-12-20T10:35:54;97122.53;;;4.85;100.00
11936;BME280;6027;48.576;9.180;2023-12-20T10:38:20;97127.53;;;4.79;100.00
11936;BME280;6027;48.576;9.180;2023-12-20T10:40:46;97128.06;;;4.73;100.00
11936;BME280;6027;48.576;9.180;2023-12-20T10:43:12;97127.91;;;4.84;100.00
11936;BME280;6027;48.576;9.180;2023-12-20T10:45:37;97128.19;;;4.91;100.00
11936;BME280;6027;48.576;9.180;2023-12-20T10:48:03;97134.66;;;4.86;100.00
11936;BME280;6027;48.576;9.180;2023-12-20T10:50:29;97129.16;;;4.90;100.00
11936;BME280;6027;48.576;9.180;2023-12-20T10:52:57;97126.78;;;4.96;100.00
11936;BME280;6027;48.576;9.180;2023-12-20T10:55:23;97125.78;;;5.07;100.00
11936;BME280;6027;48.576;9.180;2023-12-20T10:57:52;97117.63;;;5.19;100.00
11936;BME280;6027;48.576;9.180;2023-12-20T11:00:18;97129.88;;;5.29;100.00
11936;BME280;6027;48.576;9.180;2023-12-20T11:02:49;97123.81;;;5.28;100.00
11936;BME280;6027;48.576;9.180;2023-12-20T11:05:58;97127.66;;;5.34;100.00
11936;BME280;6027;48.576;9.180;2023-12-20T11:08:37;97127.41;;;5.27;100.00
11936;BME280;6027;48.576;9.180;2023-12-20T11:11:09;97126.84;;;5.33;100.00
11936;BME280;6027;48.576;9.180;2023-12-20T11:13:43;97124.63;;;5.38;100.00
11936;BME280;6027;48.576;9.180;2023-12-20T11:16:13;97122.13;;;5.37;100.00
11936;BME280;6027;48.576;9.180;2023-12-20T11:18:40;97125.47;;;5.29;100.00
11936;BME280;6027;48.576;9.180;2023-12-20T11:21:06;97129.19;;;5.27;100.00
11936;BME280;6027;48.576;9.180;2023-12-20T11:23:35;97117.59;;;5.29;100.00
11936;BME280;6027;48.576;9.180;2023-12-20T11:26:01;97107.03;;;5.39;100.00
11936;BME280;6027;48.576;9.180;2023-12-20T11:28:27;97120.13;;;5.48;100.00
11936;BME280;6027;48.576;9.180;2023-12-20T11:31:00;97114.03;;;5.58;100.00
11936;BME280;6027;48.576;9.180;2023-12-20T11:33:29;97118.41;;;5.67;100.00
11936;BME280;6027;48.576;9.180;2023-12-20T11:35:56;97125.69;;;5.73;100.00
11936;BME280;6027;48.576;9.180;2023-12-20T11:38:21;97133.47;;;5.65;100.00
11936;BME280;6027;48.576;9.180;2023-12-20T11:40:49;97123.78;;;5.65;100.00
11936;BME280;6027;48.576;9.180;2023-12-20T11:46:02;97120.41;;;5.45;100.00
11936;BME280;6027;48.576;9.180;2023-12-20T11:48:29;97122.97;;;5.28;100.00
11936;BME280;6027;48.576;9.180;2023-12-20T11:50:56;97123.25;;;5.25;100.00
11936;BME280;6027;48.576;9.180;2023-12-20T11:53:21;97114.47;;;5.16;100.00
11936;BME280;6027;48.576;9.180;2023-12-20T11:55:48;97122.06;;;5.09;100.00
11936;BME280;6027;48.576;9.180;2023-12-20T11:58:14;97134.75;;;5.14;100.00
11936;BME280;6027;48.576;9.180;2023-12-20T12:00:44;97123.13;;;5.26;100.00
11936;BME280;6027;48.576;9.180;2023-12-20T12:03:09;97114.69;;;5.32;100.00
11936;BME280;6027;48.576;9.180;2023-12-20T12:05:35;97105.44;;;5.28;100.00
11936;BME280;6027;48.576;9.180;2023-12-20T12:08:02;97117.91;;;5.16;100.00
11936;BME280;6027;48.576;9.180;2023-12-20T12:10:29;97115.16;;;5.18;100.00
11936;BME280;6027;48.576;9.180;2023-12-20T12:12:54;97117.88;;;5.26;100.00
11936;BME280;6027;48.576;9.180;2023-12-20T12:15:20;97107.09;;;5.29;100.00
11936;BME280;6027;48.576;9.180;2023-12-20T12:17:56;97115.53;;;5.23;100.00
11936;BME280;6027;48.576;9.180;2023-12-20T12:20:22;97119.84;;;5.14;100.00
11936;BME280;6027;48.576;9.180;2023-12-20T12:23:02;97108.38;;;5.06;100.00
11936;BME280;6027;48.576;9.180;2023-12-20T12:25:29;97108.16;;;4.99;100.00
11936;BME280;6027;48.576;9.180;2023-12-20T12:27:56;97112.84;;;4.96;100.00
11936;BME280;6027;48.576;9.180;2023-12-20T12:30:21;97113.81;;;4.85;100.00
11936;BME280;6027;48.576;9.180;2023-12-20T12:32:47;97114.38;;;4.89;100.00
11936;BME280;6027;48.576;9.180;2023-12-20T12:35:13;97115.22;;;4.79;100.00
11936;BME280;6027;48.576;9.180;2023-12-20T12:37:41;97100.19;;;4.62;100.00
11936;BME280;6027;48.576;9.180;2023-12-20T12:40:09;97099.09;;;4.55;100.00
11936;BME280;6027;48.576;9.180;2023-12-20T12:42:36;97099.53;;;4.60;100.00
11936;BME280;6027;48.576;9.180;2023-12-20T12:45:02;97103.63;;;4.63;100.00
11936;BME280;6027;48.576;9.180;2023-12-20T12:47:28;97100.47;;;4.69;100.00
11936;BME280;6027;48.576;9.180;2023-12-20T12:49:53;97106.81;;;4.66;100.00
11936;BME280;6027;48.576;9.180;2023-12-20T12:52:19;97108.59;;;4.66;100.00
11936;BME280;6027;48.576;9.180;2023-12-20T12:54:45;97093.13;;;4.63;100.00
11936;BME280;6027;48.576;9.180;2023-12-20T12:57:11;97103.06;;;4.69;100.00
11936;BME280;6027;48.576;9.180;2023-12-20T12:59:36;97100.47;;;4.69;100.00
11936;BME280;6027;48.576;9.180;2023-12-20T13:02:02;97113.84;;;4.75;100.00
11936;BME280;6027;48.576;9.180;2023-12-20T13:04:27;97099.22;;;4.73;100.00
11936;BME280;6027;48.576;9.180;2023-12-20T13:06:53;97095.22;;;4.69;100.00